Time,TemperatureF,DewpointF,PressureIn,WindDirection,WindDirectionDegrees,WindSpeedMPH,WindSpeedGustMPH,Humidity,HourlyPrecipIn,Conditions,Clouds,dailyrainin,SoftwareType,DateUTC
2014-08-30 00:13:00,58.6,55.0,30.20,SW,234,0.0,0.0,87,0.00,,,0.00,weatherlink.com 1.10,2014-08-30 04:13:00,
2014-08-30 00:30:00,58.5,55.0,30.20,SW,234,0.0,1.0,87,0.00,,,0.00,weatherlink.com 1.10,2014-08-30 04:30:00,
2014-08-30 00:46:00,58.3,55.0,30.20,SW,234,0.0,0.0,88,0.00,,,0.00,weatherlink.com 1.10,2014-08-30 04:46:00,
2014-08-30 01:02:00,58.0,55.0,30.20,SW,234,0.0,0.0,89,0.00,,,0.00,weatherlink.com 1.10,2014-08-30 05:02:00,
2014-08-30 01:18:00,57.8,55.0,30.20,SW,234,0.0,0.0,89,0.00,,,0.00,weatherlink.com 1.10,2014-08-30 05:18:00,
2014-08-30 01:34:00,57.7,55.0,30.20,SW,234,0.0,0.0,90,0.00,,,0.00,weatherlink.com 1.10,2014-08-30 05:34:00,
2014-08-30 01:50:00,57.3,54.0,30.20,SW,234,0.0,0.0,90,0.00,,,0.00,weatherlink.com 1.10,2014-08-30 05:50:00,
2014-08-30 02:06:00,57.0,54.0,30.20,SW,234,0.0,0.0,91,0.00,,,0.00,weatherlink.com 1.10,2014-08-30 06:06:00,
2014-08-30 02:22:00,56.9,55.0,30.21,SW,234,0.0,0.0,92,0.00,,,0.00,weatherlink.com 1.10,2014-08-30 06:22:00,
2014-08-30 02:38:00,56.7,54.0,30.21,SW,234,0.0,0.0,92,0.00,,,0.00,weatherlink.com 1.10,2014-08-30 06:38:00,
2014-08-30 02:54:00,56.6,54.0,30.21,SW,234,0.0,0.0,92,0.00,,,0.00,weatherlink.com 1.10,2014-08-30 06:54:00,
2014-08-30 03:10:00,56.6,55.0,30.20,SW,234,0.0,0.0,93,0.00,,,0.00,weatherlink.com 1.10,2014-08-30 07:10:00,
2014-08-30 03:26:00,56.9,55.0,30.20,SW,234,0.0,0.0,93,0.00,,,0.00,weatherlink.com 1.10,2014-08-30 07:26:00,
2014-08-30 03:42:00,57.3,55.0,30.20,SW,234,0.0,0.0,93,0.00,,,0.00,weatherlink.com 1.10,2014-08-30 07:42:00,
2014-08-30 03:58:00,57.8,55.0,30.20,SW,234,0.0,0.0,92,0.00,,,0.00,weatherlink.com 1.10,2014-08-30 07:58:00,
2014-08-30 04:14:00,58.2,56.0,30.19,SW,234,0.0,0.0,92,0.00,,,0.00,weatherlink.com 1.10,2014-08-30 08:14:00,
2014-08-30 04:31:00,58.3,56.0,30.20,SW,234,0.0,0.0,92,0.00,,,0.00,weatherlink.com 1.10,2014-08-30 08:31:00,
2014-08-30 04:46:00,58.0,56.0,30.20,SW,234,0.0,0.0,92,0.00,,,0.00,weatherlink.com 1.10,2014-08-30 08:46:00,
2014-08-30 05:02:00,57.7,55.0,30.19,SW,234,0.0,0.0,92,0.00,,,0.00,weatherlink.com 1.10,2014-08-30 09:02:00,
2014-08-30 05:35:00,57.3,55.0,30.20,SW,234,0.0,0.0,93,0.00,,,0.00,weatherlink.com 1.10,2014-08-30 09:35:00,
2014-08-30 05:51:00,57.2,55.0,30.20,SW,234,0.0,0.0,93,0.00,,,0.00,weatherlink.com 1.10,2014-08-30 09:51:00,
2014-08-30 06:07:00,57.3,55.0,30.20,SW,234,0.0,0.0,93,0.00,,,0.00,weatherlink.com 1.10,2014-08-30 10:07:00,
2014-08-30 06:23:00,57.4,56.0,30.21,SW,234,0.0,0.0,94,0.00,,,0.00,weatherlink.com 1.10,2014-08-30 10:23:00,
2014-08-30 06:39:00,57.6,56.0,30.21,SW,234,0.0,0.0,94,0.00,,,0.00,weatherlink.com 1.10,2014-08-30 10:39:00,
2014-08-30 06:56:00,57.7,56.0,30.21,SW,234,0.0,0.0,94,0.00,,,0.00,weatherlink.com 1.10,2014-08-30 10:56:00,
2014-08-30 07:12:00,58.2,56.0,30.22,SW,234,0.0,0.0,94,0.00,,,0.00,weatherlink.com 1.10,2014-08-30 11:12:00,
2014-08-30 07:28:00,58.9,57.0,30.22,SW,234,0.0,0.0,93,0.00,,,0.00,weatherlink.com 1.10,2014-08-30 11:28:00,
2014-08-30 07:44:00,59.7,58.0,30.22,SW,234,0.0,0.0,93,0.00,,,0.00,weatherlink.com 1.10,2014-08-30 11:44:00,
2014-08-30 08:00:00,60.7,58.0,30.21,SW,234,0.0,0.0,92,0.00,,,0.00,weatherlink.com 1.10,2014-08-30 12:00:00,
2014-08-30 08:16:00,61.7,59.0,30.21,SW,234,0.0,0.0,92,0.00,,,0.00,weatherlink.com 1.10,2014-08-30 12:16:00,
2014-08-30 08:32:00,62.9,60.0,30.21,SSE,155,0.0,2.0,90,0.00,,,0.00,weatherlink.com 1.10,2014-08-30 12:32:00,
2014-08-30 08:48:00,64.1,61.0,30.21,SSE,155,1.0,2.0,89,0.00,,,0.00,weatherlink.com 1.10,2014-08-30 12:48:00,
2014-08-30 09:04:00,65.2,62.0,30.21,SSW,198,0.0,4.0,88,0.00,,,0.00,weatherlink.com 1.10,2014-08-30 13:04:00,
2014-08-30 09:20:00,66.1,62.0,30.21,SSW,198,0.0,2.0,87,0.00,,,0.00,weatherlink.com 1.10,2014-08-30 13:20:00,
2014-08-30 09:36:00,67.0,63.0,30.21,SW,234,2.0,4.0,86,0.00,,,0.00,weatherlink.com 1.10,2014-08-30 13:36:00,
2014-08-30 09:52:00,67.7,63.0,30.21,WSW,248,2.0,4.0,85,0.00,,,0.00,weatherlink.com 1.10,2014-08-30 13:52:00,
2014-08-30 10:08:00,68.4,63.0,30.21,WSW,247,0.0,2.0,84,0.00,,,0.00,weatherlink.com 1.10,2014-08-30 14:08:00,
2014-08-30 10:24:00,69.0,64.0,30.21,West,260,1.0,3.0,83,0.00,,,0.00,weatherlink.com 1.10,2014-08-30 14:24:00,
2014-08-30 10:41:00,70.1,64.0,30.20,WSW,247,1.0,6.0,80,0.00,,,0.00,weatherlink.com 1.10,2014-08-30 14:41:00,
2014-08-30 10:56:00,71.2,61.0,30.20,West,279,4.0,10.0,70,0.00,,,0.00,weatherlink.com 1.10,2014-08-30 14:56:00,
2014-08-30 11:12:00,71.5,62.0,30.20,SW,229,2.0,8.0,71,0.00,,,0.00,weatherlink.com 1.10,2014-08-30 15:12:00,
2014-08-30 11:29:00,72.1,61.0,30.20,WSW,252,2.0,8.0,69,0.00,,,0.00,weatherlink.com 1.10,2014-08-30 15:29:00,
2014-08-30 11:45:00,72.3,61.0,30.20,SW,229,1.0,8.0,68,0.00,,,0.00,weatherlink.com 1.10,2014-08-30 15:45:00,
2014-08-30 12:01:00,72.5,62.0,30.19,SW,222,2.0,5.0,69,0.00,,,0.00,weatherlink.com 1.10,2014-08-30 16:01:00,
2014-08-30 12:17:00,72.7,62.0,30.19,West,277,1.0,7.0,68,0.00,,,0.00,weatherlink.com 1.10,2014-08-30 16:17:00,
2014-08-30 12:33:00,73.3,63.0,30.19,West,274,1.0,5.0,69,0.00,,,0.00,weatherlink.com 1.10,2014-08-30 16:33:00,
2014-08-30 12:49:00,73.9,62.0,30.18,WNW,300,1.0,4.0,67,0.00,,,0.00,weatherlink.com 1.10,2014-08-30 16:49:00,
2014-08-30 13:05:00,74.4,61.0,30.18,WSW,240,3.0,8.0,64,0.00,,,0.00,weatherlink.com 1.10,2014-08-30 17:05:00,
2014-08-30 13:21:00,74.5,62.0,30.18,WSW,238,3.0,11.0,66,0.00,,,0.00,weatherlink.com 1.10,2014-08-30 17:21:00,
2014-08-30 13:37:00,75.0,63.0,30.17,WSW,238,2.0,7.0,66,0.00,,,0.00,weatherlink.com 1.10,2014-08-30 17:37:00,
2014-08-30 13:53:00,76.7,64.0,30.17,SW,234,2.0,7.0,64,0.00,,,0.00,weatherlink.com 1.10,2014-08-30 17:53:00,
2014-08-30 14:09:00,77.5,63.0,30.16,WNW,285,4.0,10.0,61,0.00,,,0.00,weatherlink.com 1.10,2014-08-30 18:09:00,
2014-08-30 14:25:00,76.9,63.0,30.15,WSW,252,2.0,8.0,63,0.00,,,0.00,weatherlink.com 1.10,2014-08-30 18:25:00,
2014-08-30 14:41:00,77.5,64.0,30.14,West,277,2.0,10.0,63,0.00,,,0.00,weatherlink.com 1.10,2014-08-30 18:41:00,
2014-08-30 14:57:00,77.5,63.0,30.14,SW,236,6.0,6.0,62,0.00,,,0.00,weatherlink.com 1.10,2014-08-30 18:57:00,
2014-08-30 15:13:00,78.7,64.0,30.13,WSW,243,2.0,8.0,61,0.00,,,0.00,weatherlink.com 1.10,2014-08-30 19:13:00,
2014-08-30 15:29:00,79.1,64.0,30.13,WSW,240,7.0,8.0,61,0.00,,,0.00,weatherlink.com 1.10,2014-08-30 19:29:00,
2014-08-30 15:45:00,80.6,64.0,30.12,WSW,252,4.0,9.0,58,0.00,,,0.00,weatherlink.com 1.10,2014-08-30 19:45:00,
2014-08-30 16:01:00,80.2,64.0,30.12,WSW,247,3.0,10.0,58,0.00,,,0.00,weatherlink.com 1.10,2014-08-30 20:01:00,
2014-08-30 16:17:00,81.2,65.0,30.11,NW,304,4.0,9.0,57,0.00,,,0.00,weatherlink.com 1.10,2014-08-30 20:17:00,
2014-08-30 16:33:00,79.8,65.0,30.11,SW,221,3.0,10.0,60,0.00,,,0.00,weatherlink.com 1.10,2014-08-30 20:33:00,
2014-08-30 16:49:00,79.3,65.0,30.11,West,281,5.0,9.0,62,0.00,,,0.00,weatherlink.com 1.10,2014-08-30 20:49:00,
2014-08-30 17:05:00,79.4,64.0,30.11,West,266,2.0,8.0,60,0.00,,,0.00,weatherlink.com 1.10,2014-08-30 21:05:00,
2014-08-30 17:22:00,78.8,64.0,30.11,West,263,4.0,10.0,60,0.00,,,0.00,weatherlink.com 1.10,2014-08-30 21:22:00,
2014-08-30 17:37:00,78.1,64.0,30.11,SW,218,2.0,8.0,62,0.00,,,0.00,weatherlink.com 1.10,2014-08-30 21:37:00,
2014-08-30 17:53:00,77.6,64.0,30.11,WSW,246,2.0,8.0,63,0.00,,,0.00,weatherlink.com 1.10,2014-08-30 21:53:00,